sensor_id;sensor_type;location;lat;lon;timestamp;P1;durP1;ratioP1;P2;durP2;ratioP2
79373;SDS011;68844;53.128;17.958;2023-05-07T00:02:09;0.30;;;0.20;;
79373;SDS011;68844;53.128;17.958;2023-05-07T00:04:36;0.30;;;0.20;;
79373;SDS011;68844;53.128;17.958;2023-05-07T00:07:04;0.20;;;0.20;;
79373;SDS011;68844;53.128;17.958;2023-05-07T00:09:32;0.20;;;0.20;;
79373;SDS011;68844;53.128;17.958;2023-05-07T00:11:58;0.40;;;0.20;;
79373;SDS011;68844;53.128;17.958;2023-05-07T00:14:25;0.20;;;0.20;;
79373;SDS011;68844;53.128;17.958;2023-05-07T00:16:52;0.30;;;0.20;;
79373;SDS011;68844;53.128;17.958;2023-05-07T00:19:19;0.20;;;0.20;;
79373;SDS011;68844;53.128;17.958;2023-05-07T00:21:46;0.10;;;0.10;;
79373;SDS011;68844;53.128;17.958;2023-05-07T00:24:13;0.30;;;0.10;;
79373;SDS011;68844;53.128;17.958;2023-05-07T00:26:40;0.30;;;0.20;;
79373;SDS011;68844;53.128;17.958;2023-05-07T00:29:07;0.20;;;0.20;;
79373;SDS011;68844;53.128;17.958;2023-05-07T00:31:34;0.50;;;0.40;;
79373;SDS011;68844;53.128;17.958;2023-05-07T00:34:01;0.20;;;0.20;;
79373;SDS011;68844;53.128;17.958;2023-05-07T00:36:28;0.30;;;0.20;;
79373;SDS011;68844;53.128;17.958;2023-05-07T00:38:56;0.50;;;0.30;;
79373;SDS011;68844;53.128;17.958;2023-05-07T00:41:25;0.90;;;0.50;;
79373;SDS011;68844;53.128;17.958;2023-05-07T00:43:52;0.20;;;0.20;;
79373;SDS011;68844;53.128;17.958;2023-05-07T00:46:20;0.50;;;0.30;;
79373;SDS011;68844;53.128;17.958;2023-05-07T00:48:47;0.20;;;0.20;;
79373;SDS011;68844;53.128;17.958;2023-05-07T00:51:17;0.80;;;0.60;;
79373;SDS011;68844;53.128;17.958;2023-05-07T00:53:45;0.90;;;0.70;;
79373;SDS011;68844;53.128;17.958;2023-05-07T00:56:13;0.90;;;0.70;;
79373;SDS011;68844;53.128;17.958;2023-05-07T00:58:40;1.00;;;0.70;;
79373;SDS011;68844;53.128;17.958;2023-05-07T01:01:07;1.40;;;1.30;;
79373;SDS011;68844;53.128;17.958;2023-05-07T01:03:34;1.00;;;0.70;;
79373;SDS011;68844;53.128;17.958;2023-05-07T01:06:01;1.20;;;1.00;;
79373;SDS011;68844;53.128;17.958;2023-05-07T01:10:58;2.00;;;1.90;;
79373;SDS011;68844;53.128;17.958;2023-05-07T01:13:26;1.30;;;1.00;;
79373;SDS011;68844;53.128;17.958;2023-05-07T01:15:54;1.50;;;1.30;;
79373;SDS011;68844;53.128;17.958;2023-05-07T01:18:21;1.10;;;0.90;;
79373;SDS011;68844;53.128;17.958;2023-05-07T01:20:48;1.10;;;0.80;;
79373;SDS011;68844;53.128;17.958;2023-05-07T01:23:15;1.10;;;0.90;;
79373;SDS011;68844;53.128;17.958;2023-05-07T01:25:50;0.90;;;0.60;;
79373;SDS011;68844;53.128;17.958;2023-05-07T01:28:22;0.80;;;0.60;;
79373;SDS011;68844;53.128;17.958;2023-05-07T01:30:51;0.90;;;0.70;;
79373;SDS011;68844;53.128;17.958;2023-05-07T01:33:20;0.90;;;0.60;;
79373;SDS011;68844;53.128;17.958;2023-05-07T01:35:50;1.00;;;0.70;;
79373;SDS011;68844;53.128;17.958;2023-05-07T01:38:20;1.00;;;0.90;;
79373;SDS011;68844;53.128;17.958;2023-05-07T01:40:49;0.80;;;0.60;;
79373;SDS011;68844;53.128;17.958;2023-05-07T01:43:16;0.90;;;0.50;;
79373;SDS011;68844;53.128;17.958;2023-05-07T01:45:44;0.50;;;0.30;;
79373;SDS011;68844;53.128;17.958;2023-05-07T01:48:12;0.50;;;0.40;;
79373;SDS011;68844;53.128;17.958;2023-05-07T01:50:44;0.60;;;0.30;;
79373;SDS011;68844;53.128;17.958;2023-05-07T01:53:11;0.50;;;0.30;;
79373;SDS011;68844;53.128;17.958;2023-05-07T01:55:38;0.60;;;0.30;;
79373;SDS011;68844;53.128;17.958;2023-05-07T01:58:06;0.40;;;0.40;;
79373;SDS011;68844;53.128;17.958;2023-05-07T02:00:33;0.30;;;0.20;;
79373;SDS011;68844;53.128;17.958;2023-05-07T02:03:01;0.20;;;0.10;;
79373;SDS011;68844;53.128;17.958;2023-05-07T02:05:50;0.30;;;0.30;;
79373;SDS011;68844;53.128;17.958;2023-05-07T02:08:24;0.20;;;0.20;;
79373;SDS011;68844;53.128;17.958;2023-05-07T02:14:14;0.20;;;0.10;;
79373;SDS011;68844;53.128;17.958;2023-05-07T02:16:42;0.40;;;0.20;;
79373;SDS011;68844;53.128;17.958;2023-05-07T02:19:11;0.20;;;0.20;;
79373;SDS011;68844;53.128;17.958;2023-05-07T02:21:38;0.20;;;0.20;;
79373;SDS011;68844;53.128;17.958;2023-05-07T02:24:06;0.30;;;0.20;;
79373;SDS011;68844;53.128;17.958;2023-05-07T02:26:33;0.40;;;0.30;;
79373;SDS011;68844;53.128;17.958;2023-05-07T02:29:01;0.30;;;0.20;;
79373;SDS011;68844;53.128;17.958;2023-05-07T02:31:27;0.30;;;0.20;;
79373;SDS011;68844;53.128;17.958;2023-05-07T02:33:54;0.30;;;0.30;;
79373;SDS011;68844;53.128;17.958;2023-05-07T02:36:21;0.30;;;0.30;;
79373;SDS011;68844;53.128;17.958;2023-05-07T02:38:52;0.20;;;0.10;;
79373;SDS011;68844;53.128;17.958;2023-05-07T02:41:20;0.10;;;0.10;;
79373;SDS011;68844;53.128;17.958;2023-05-07T02:43:48;0.20;;;0.10;;
79373;SDS011;68844;53.128;17.958;2023-05-07T02:46:14;0.10;;;0.10;;
79373;SDS011;68844;53.128;17.958;2023-05-07T02:48:44;0.30;;;0.20;;
79373;SDS011;68844;53.128;17.958;2023-05-07T02:51:11;0.20;;;0.20;;
79373;SDS011;68844;53.128;17.958;2023-05-07T02:53:39;0.10;;;0.10;;
79373;SDS011;68844;53.128;17.958;2023-05-07T02:56:06;0.10;;;0.00;;
79373;SDS011;68844;53.128;17.958;2023-05-07T02:58:33;0.00;;;0.00;;
79373;SDS011;68844;53.128;17.958;2023-05-07T03:01:01;0.40;;;0.20;;
79373;SDS011;68844;53.128;17.958;2023-05-07T03:03:32;0.30;;;0.20;;
79373;SDS011;68844;53.128;17.958;2023-05-07T03:05:59;0.20;;;0.10;;
79373;SDS011;68844;53.128;17.958;2023-05-07T03:08:26;0.10;;;0.00;;
79373;SDS011;68844;53.128;17.958;2023-05-07T03:10:53;0.20;;;0.10;;
79373;SDS011;68844;53.128;17.958;2023-05-07T03:13:20;0.20;;;0.10;;
79373;SDS011;68844;53.128;17.958;2023-05-07T03:15:48;0.20;;;0.20;;
79373;SDS011;68844;53.128;17.958;2023-05-07T03:18:16;0.10;;;0.10;;
79373;SDS011;68844;53.128;17.958;2023-05-07T03:20:42;0.10;;;0.10;;
79373;SDS011;68844;53.128;17.958;2023-05-07T03:23:09;0.20;;;0.20;;
79373;SDS011;68844;53.128;17.958;2023-05-07T03:25:36;0.10;;;0.10;;
79373;SDS011;68844;53.128;17.958;2023-05-07T03:28:03;0.20;;;0.10;;
79373;SDS011;68844;53.128;17.958;2023-05-07T03:30:38;0.20;;;0.10;;
79373;SDS011;68844;53.128;17.958;2023-05-07T03:33:04;0.10;;;0.10;;
79373;SDS011;68844;53.128;17.958;2023-05-07T03:35:31;0.10;;;0.10;;
79373;SDS011;68844;53.128;17.958;2023-05-07T03:37:58;0.20;;;0.20;;
79373;SDS011;68844;53.128;17.958;2023-05-07T03:40:27;0.10;;;0.10;;
79373;SDS011;68844;53.128;17.958;2023-05-07T03:42:54;0.10;;;0.10;;
79373;SDS011;68844;53.128;17.958;2023-05-07T03:45:23;0.20;;;0.10;;
79373;SDS011;68844;53.128;17.958;2023-05-07T03:47:57;0.20;;;0.20;;
79373;SDS011;68844;53.128;17.958;2023-05-07T03:50:24;0.10;;;0.00;;
79373;SDS011;68844;53.128;17.958;2023-05-07T03:52:51;0.20;;;0.20;;
79373;SDS011;68844;53.128;17.958;2023-05-07T03:55:19;0.00;;;0.00;;
79373;SDS011;68844;53.128;17.958;2023-05-07T03:57:50;0.10;;;0.10;;
79373;SDS011;68844;53.128;17.958;2023-05-07T04:00:18;0.60;;;0.10;;
79373;SDS011;68844;53.128;17.958;2023-05-07T04:02:49;0.10;;;0.10;;
79373;SDS011;68844;53.128;17.958;2023-05-07T04:05:22;0.10;;;0.10;;
79373;SDS011;68844;53.128;17.958;2023-05-07T04:07:51;0.20;;;0.10;;
79373;SDS011;68844;53.128;17.958;2023-05-07T04:10:21;0.00;;;0.00;;
79373;SDS011;68844;53.128;17.958;2023-05-07T04:12:49;0.10;;;0.10;;
79373;SDS011;68844;53.128;17.958;2023-05-07T04:15:19;0.10;;;0.10;;
79373;SDS011;68844;53.128;17.958;2023-05-07T04:17:46;0.10;;;0.10;;
79373;SDS011;68844;53.128;17.958;2023-05-07T04:20:15;0.10;;;0.10;;
79373;SDS011;68844;53.128;17.958;2023-05-07T04:22:44;0.20;;;0.20;;
79373;SDS011;68844;53.128;17.958;2023-05-07T04:25:11;0.10;;;0.10;;
79373;SDS011;68844;53.128;17.958;2023-05-07T04:27:38;0.30;;;0.20;;
79373;SDS011;68844;53.128;17.958;2023-05-07T04:30:05;0.20;;;0.20;;
79373;SDS011;68844;53.128;17.958;2023-05-07T04:32:35;0.10;;;0.00;;
79373;SDS011;68844;53.128;17.958;2023-05-07T04:35:04;0.10;;;0.10;;
79373;SDS011;68844;53.128;17.958;2023-05-07T04:37:32;0.20;;;0.10;;
79373;SDS011;68844;53.128;17.958;2023-05-07T04:39:59;0.80;;;0.10;;
79373;SDS011;68844;53.128;17.958;2023-05-07T04:42:27;0.20;;;0.20;;
79373;SDS011;68844;53.128;17.958;2023-05-07T04:44:54;0.40;;;0.40;;
79373;SDS011;68844;53.128;17.958;2023-05-07T04:47:22;0.60;;;0.30;;
79373;SDS011;68844;53.128;17.958;2023-05-07T04:49:48;0.20;;;0.10;;
79373;SDS011;68844;53.128;17.958;2023-05-07T04:52:15;0.30;;;0.20;;
79373;SDS011;68844;53.128;17.958;2023-05-07T04:54:43;0.20;;;0.20;;
79373;SDS011;68844;53.128;17.958;2023-05-07T04:57:10;0.10;;;0.10;;
79373;SDS011;68844;53.128;17.958;2023-05-07T04:59:38;0.20;;;0.10;;
79373;SDS011;68844;53.128;17.958;2023-05-07T05:02:05;0.20;;;0.10;;
79373;SDS011;68844;53.128;17.958;2023-05-07T05:04:32;0.10;;;0.10;;
79373;SDS011;68844;53.128;17.958;2023-05-07T05:06:59;0.20;;;0.10;;
79373;SDS011;68844;53.128;17.958;2023-05-07T05:09:26;0.30;;;0.10;;
79373;SDS011;68844;53.128;17.958;2023-05-07T05:11:53;0.10;;;0.10;;
79373;SDS011;68844;53.128;17.958;2023-05-07T05:14:20;0.10;;;0.10;;
79373;SDS011;68844;53.128;17.958;2023-05-07T05:16:47;0.10;;;0.10;;
79373;SDS011;68844;53.128;17.958;2023-05-07T05:19:15;0.00;;;0.00;;
79373;SDS011;68844;53.128;17.958;2023-05-07T05:21:43;0.10;;;0.10;;
79373;SDS011;68844;53.128;17.958;2023-05-07T05:24:10;0.10;;;0.10;;
79373;SDS011;68844;53.128;17.958;2023-05-07T05:26:39;0.20;;;0.10;;
79373;SDS011;68844;53.128;17.958;2023-05-07T05:29:06;0.10;;;0.10;;
79373;SDS011;68844;53.128;17.958;2023-05-07T05:31:35;0.20;;;0.10;;
79373;SDS011;68844;53.128;17.958;2023-05-07T05:34:03;0.10;;;0.10;;
79373;SDS011;68844;53.128;17.958;2023-05-07T05:38:57;0.10;;;0.10;;
79373;SDS011;68844;53.128;17.958;2023-05-07T05:41:24;0.10;;;0.10;;
79373;SDS011;68844;53.128;17.958;2023-05-07T05:43:52;0.10;;;0.10;;
79373;SDS011;68844;53.128;17.958;2023-05-07T05:46:19;0.10;;;0.10;;
79373;SDS011;68844;53.128;17.958;2023-05-07T05:48:46;0.20;;;0.10;;
79373;SDS011;68844;53.128;17.958;2023-05-07T05:51:13;0.30;;;0.30;;
79373;SDS011;68844;53.128;17.958;2023-05-07T05:53:40;0.10;;;0.10;;
79373;SDS011;68844;53.128;17.958;2023-05-07T05:56:07;0.10;;;0.10;;
79373;SDS011;68844;53.128;17.958;2023-05-07T05:58:34;0.10;;;0.10;;
79373;SDS011;68844;53.128;17.958;2023-05-07T06:01:03;0.20;;;0.20;;
79373;SDS011;68844;53.128;17.958;2023-05-07T06:03:31;0.30;;;0.20;;
79373;SDS011;68844;53.128;17.958;2023-05-07T06:06:00;0.20;;;0.20;;
79373;SDS011;68844;53.128;17.958;2023-05-07T06:08:29;1.00;;;0.20;;
79373;SDS011;68844;53.128;17.958;2023-05-07T06:10:57;0.20;;;0.20;;
79373;SDS011;68844;53.128;17.958;2023-05-07T06:13:24;0.10;;;0.10;;
79373;SDS011;68844;53.128;17.958;2023-05-07T06:15:51;0.20;;;0.20;;
79373;SDS011;68844;53.128;17.958;2023-05-07T06:18:18;0.20;;;0.20;;
79373;SDS011;68844;53.128;17.958;2023-05-07T06:20:45;0.20;;;0.20;;
79373;SDS011;68844;53.128;17.958;2023-05-07T06:23:17;0.20;;;0.20;;
79373;SDS011;68844;53.128;17.958;2023-05-07T06:25:50;0.20;;;0.20;;
79373;SDS011;68844;53.128;17.958;2023-05-07T06:28:18;0.20;;;0.20;;
79373;SDS011;68844;53.128;17.958;2023-05-07T06:30:46;0.10;;;0.10;;
79373;SDS011;68844;53.128;17.958;2023-05-07T06:33:13;0.10;;;0.10;;
79373;SDS011;68844;53.128;17.958;2023-05-07T06:35:40;0.30;;;0.30;;
79373;SDS011;68844;53.128;17.958;2023-05-07T06:38:06;0.10;;;0.10;;
79373;SDS011;68844;53.128;17.958;2023-05-07T06:40:33;0.10;;;0.10;;
79373;SDS011;68844;53.128;17.958;2023-05-07T06:43:00;0.10;;;0.10;;
79373;SDS011;68844;53.128;17.958;2023-05-07T06:45:37;0.00;;;0.00;;
79373;SDS011;68844;53.128;17.958;2023-05-07T06:48:04;0.00;;;0.00;;
79373;SDS011;68844;53.128;17.958;2023-05-07T06:50:33;0.00;;;0.00;;
79373;SDS011;68844;53.128;17.958;2023-05-07T06:53:01;0.00;;;0.00;;
79373;SDS011;68844;53.128;17.958;2023-05-07T06:55:28;0.10;;;0.10;;
79373;SDS011;68844;53.128;17.958;2023-05-07T06:57:55;0.10;;;0.10;;
79373;SDS011;68844;53.128;17.958;2023-05-07T07:00:25;0.10;;;0.10;;
79373;SDS011;68844;53.128;17.958;2023-05-07T07:02:54;0.10;;;0.10;;
79373;SDS011;68844;53.128;17.958;2023-05-07T07:05:23;0.10;;;0.00;;
79373;SDS011;68844;53.128;17.958;2023-05-07T07:07:51;0.10;;;0.10;;
79373;SDS011;68844;53.128;17.958;2023-05-07T07:10:21;0.00;;;0.00;;
79373;SDS011;68844;53.128;17.958;2023-05-07T07:12:49;0.00;;;0.00;;
79373;SDS011;68844;53.128;17.958;2023-05-07T07:15:17;0.10;;;0.10;;
79373;SDS011;68844;53.128;17.958;2023-05-07T07:17:44;0.10;;;0.10;;
79373;SDS011;68844;53.128;17.958;2023-05-07T07:20:10;0.10;;;0.10;;
79373;SDS011;68844;53.128;17.958;2023-05-07T07:22:37;0.00;;;0.00;;
79373;SDS011;68844;53.128;17.958;2023-05-07T07:25:05;0.10;;;0.10;;
79373;SDS011;68844;53.128;17.958;2023-05-07T07:29:59;0.10;;;0.10;;
79373;SDS011;68844;53.128;17.958;2023-05-07T07:32:26;0.10;;;0.10;;
79373;SDS011;68844;53.128;17.958;2023-05-07T07:34:54;0.10;;;0.10;;
79373;SDS011;68844;53.128;17.958;2023-05-07T07:37:21;0.00;;;0.00;;
79373;SDS011;68844;53.128;17.958;2023-05-07T07:39:48;0.00;;;0.00;;
79373;SDS011;68844;53.128;17.958;2023-05-07T07:42:15;0.20;;;0.20;;
79373;SDS011;68844;53.128;17.958;2023-05-07T07:44:41;0.00;;;0.00;;
79373;SDS011;68844;53.128;17.958;2023-05-07T07:47:10;0.10;;;0.10;;
79373;SDS011;68844;53.128;17.958;2023-05-07T07:49:37;0.00;;;0.00;;
79373;SDS011;68844;53.128;17.958;2023-05-07T07:52:06;0.10;;;0.10;;
79373;SDS011;68844;53.128;17.958;2023-05-07T07:54:34;0.10;;;0.10;;
79373;SDS011;68844;53.128;17.958;2023-05-07T07:57:02;0.10;;;0.10;;
79373;SDS011;68844;53.128;17.958;2023-05-07T07:59:30;0.00;;;0.00;;
79373;SDS011;68844;53.128;17.958;2023-05-07T08:01:57;0.20;;;0.20;;
79373;SDS011;68844;53.128;17.958;2023-05-07T08:04:25;0.10;;;0.00;;
79373;SDS011;68844;53.128;17.958;2023-05-07T08:06:52;0.00;;;0.00;;
79373;SDS011;68844;53.128;17.958;2023-05-07T08:09:21;0.00;;;0.00;;
79373;SDS011;68844;53.128;17.958;2023-05-07T08:11:48;0.10;;;0.10;;
79373;SDS011;68844;53.128;17.958;2023-05-07T08:14:16;0.10;;;0.10;;
79373;SDS011;68844;53.128;17.958;2023-05-07T08:16:46;0.10;;;0.10;;
79373;SDS011;68844;53.128;17.958;2023-05-07T08:19:13;0.10;;;0.10;;
79373;SDS011;68844;53.128;17.958;2023-05-07T08:21:40;0.10;;;0.10;;
79373;SDS011;68844;53.128;17.958;2023-05-07T08:24:07;0.10;;;0.10;;
79373;SDS011;68844;53.128;17.958;2023-05-07T08:26:35;0.10;;;0.10;;
79373;SDS011;68844;53.128;17.958;2023-05-07T08:29:03;0.00;;;0.00;;
79373;SDS011;68844;53.128;17.958;2023-05-07T08:33:57;0.00;;;0.00;;
79373;SDS011;68844;53.128;17.958;2023-05-07T08:36:25;0.10;;;0.10;;
79373;SDS011;68844;53.128;17.958;2023-05-07T08:41:20;0.00;;;0.00;;
79373;SDS011;68844;53.128;17.958;2023-05-07T08:43:48;0.10;;;0.00;;
79373;SDS011;68844;53.128;17.958;2023-05-07T08:46:18;0.10;;;0.10;;
79373;SDS011;68844;53.128;17.958;2023-05-07T08:48:50;0.10;;;0.10;;
79373;SDS011;68844;53.128;17.958;2023-05-07T08:51:19;0.10;;;0.10;;
79373;SDS011;68844;53.128;17.958;2023-05-07T08:53:47;0.00;;;0.00;;
79373;SDS011;68844;53.128;17.958;2023-05-07T08:56:18;0.00;;;0.00;;
79373;SDS011;68844;53.128;17.958;2023-05-07T08:58:47;0.00;;;0.00;;
79373;SDS011;68844;53.128;17.958;2023-05-07T09:01:15;0.10;;;0.10;;
79373;SDS011;68844;53.128;17.958;2023-05-07T09:03:45;0.20;;;0.00;;
79373;SDS011;68844;53.128;17.958;2023-05-07T09:06:15;0.00;;;0.00;;
79373;SDS011;68844;53.128;17.958;2023-05-07T09:08:48;0.00;;;0.00;;
79373;SDS011;68844;53.128;17.958;2023-05-07T09:11:21;0.10;;;0.10;;
79373;SDS011;68844;53.128;17.958;2023-05-07T09:13:58;0.00;;;0.00;;
79373;SDS011;68844;53.128;17.958;2023-05-07T09:16:30;0.10;;;0.10;;
79373;SDS011;68844;53.128;17.958;2023-05-07T09:18:58;0.00;;;0.00;;
79373;SDS011;68844;53.128;17.958;2023-05-07T09:21:27;0.10;;;0.10;;
79373;SDS011;68844;53.128;17.958;2023-05-07T09:23:55;0.00;;;0.00;;
79373;SDS011;68844;53.128;17.958;2023-05-07T09:26:27;0.00;;;0.00;;
79373;SDS011;68844;53.128;17.958;2023-05-07T09:31:22;0.00;;;0.00;;
79373;SDS011;68844;53.128;17.958;2023-05-07T09:33:50;0.20;;;0.20;;
79373;SDS011;68844;53.128;17.958;2023-05-07T09:36:19;0.20;;;0.20;;
79373;SDS011;68844;53.128;17.958;2023-05-07T09:38:46;0.00;;;0.00;;
79373;SDS011;68844;53.128;17.958;2023-05-07T09:44:00;0.00;;;0.00;;
79373;SDS011;68844;53.128;17.958;2023-05-07T09:46:31;0.20;;;0.10;;
79373;SDS011;68844;53.128;17.958;2023-05-07T09:49:06;0.00;;;0.00;;
79373;SDS011;68844;53.128;17.958;2023-05-07T09:54:17;0.00;;;0.00;;
79373;SDS011;68844;53.128;17.958;2023-05-07T09:56:47;0.10;;;0.10;;
79373;SDS011;68844;53.128;17.958;2023-05-07T09:59:15;0.00;;;0.00;;
79373;SDS011;68844;53.128;17.958;2023-05-07T10:01:44;0.00;;;0.00;;
79373;SDS011;68844;53.128;17.958;2023-05-07T10:04:12;0.00;;;0.00;;
79373;SDS011;68844;53.128;17.958;2023-05-07T10:06:40;0.10;;;0.10;;
79373;SDS011;68844;53.128;17.958;2023-05-07T10:09:08;0.00;;;0.00;;
79373;SDS011;68844;53.128;17.958;2023-05-07T10:11:35;0.00;;;0.00;;
79373;SDS011;68844;53.128;17.958;2023-05-07T10:14:03;0.10;;;0.10;;
79373;SDS011;68844;53.128;17.958;2023-05-07T10:16:34;0.00;;;0.00;;
79373;SDS011;68844;53.128;17.958;2023-05-07T10:19:05;0.00;;;0.00;;
79373;SDS011;68844;53.128;17.958;2023-05-07T10:21:35;0.10;;;0.10;;
79373;SDS011;68844;53.128;17.958;2023-05-07T10:24:04;0.00;;;0.00;;
79373;SDS011;68844;53.128;17.958;2023-05-07T10:26:45;0.00;;;0.00;;
79373;SDS011;68844;53.128;17.958;2023-05-07T10:29:17;0.10;;;0.00;;
79373;SDS011;68844;53.128;17.958;2023-05-07T10:34:29;0.10;;;0.00;;
79373;SDS011;68844;53.128;17.958;2023-05-07T10:37:02;0.00;;;0.00;;
79373;SDS011;68844;53.128;17.958;2023-05-07T10:39:30;0.00;;;0.00;;
79373;SDS011;68844;53.128;17.958;2023-05-07T10:42:07;0.00;;;0.00;;
79373;SDS011;68844;53.128;17.958;2023-05-07T10:44:35;0.00;;;0.00;;
79373;SDS011;68844;53.128;17.958;2023-05-07T10:47:16;0.00;;;0.00;;
79373;SDS011;68844;53.128;17.958;2023-05-07T10:52:24;0.00;;;0.00;;
79373;SDS011;68844;53.128;17.958;2023-05-07T10:57:42;0.00;;;0.00;;
79373;SDS011;68844;53.128;17.958;2023-05-07T11:05:38;0.00;;;0.00;;
79373;SDS011;68844;53.128;17.958;2023-05-07T11:08:16;0.00;;;0.00;;
79373;SDS011;68844;53.128;17.958;2023-05-07T11:10:57;0.10;;;0.10;;
79373;SDS011;68844;53.128;17.958;2023-05-07T11:16:18;0.00;;;0.00;;
79373;SDS011;68844;53.128;17.958;2023-05-07T11:18:55;0.00;;;0.00;;
79373;SDS011;68844;53.128;17.958;2023-05-07T11:24:15;0.00;;;0.00;;
79373;SDS011;68844;53.128;17.958;2023-05-07T11:26:50;0.00;;;0.00;;
79373;SDS011;68844;53.128;17.958;2023-05-07T11:29:19;0.00;;;0.00;;
79373;SDS011;68844;53.128;17.958;2023-05-07T11:31:52;0.00;;;0.00;;
79373;SDS011;68844;53.128;17.958;2023-05-07T11:34:22;0.00;;;0.00;;
79373;SDS011;68844;53.128;17.958;2023-05-07T11:36:51;0.00;;;0.00;;
79373;SDS011;68844;53.128;17.958;2023-05-07T11:39:30;0.00;;;0.00;;
79373;SDS011;68844;53.128;17.958;2023-05-07T11:41:59;0.00;;;0.00;;
79373;SDS011;68844;53.128;17.958;2023-05-07T11:44:47;0.00;;;0.00;;
79373;SDS011;68844;53.128;17.958;2023-05-07T11:47:18;0.00;;;0.00;;
79373;SDS011;68844;53.128;17.958;2023-05-07T11:49:49;0.00;;;0.00;;
79373;SDS011;68844;53.128;17.958;2023-05-07T11:52:18;0.00;;;0.00;;
79373;SDS011;68844;53.128;17.958;2023-05-07T11:54:53;0.00;;;0.00;;
79373;SDS011;68844;53.128;17.958;2023-05-07T11:57:22;0.00;;;0.00;;
79373;SDS011;68844;53.128;17.958;2023-05-07T11:59:53;0.00;;;0.00;;
79373;SDS011;68844;53.128;17.958;2023-05-07T12:02:25;0.00;;;0.00;;
79373;SDS011;68844;53.128;17.958;2023-05-07T12:04:53;0.00;;;0.00;;
79373;SDS011;68844;53.128;17.958;2023-05-07T12:07:21;0.00;;;0.00;;
79373;SDS011;68844;53.128;17.958;2023-05-07T12:09:50;0.10;;;0.00;;
79373;SDS011;68844;53.128;17.958;2023-05-07T12:12:17;0.00;;;0.00;;
79373;SDS011;68844;53.128;17.958;2023-05-07T12:14:45;0.00;;;0.00;;
79373;SDS011;68844;53.128;17.958;2023-05-07T12:17:13;0.00;;;0.00;;
79373;SDS011;68844;53.128;17.958;2023-05-07T12:19:42;0.00;;;0.00;;
79373;SDS011;68844;53.128;17.958;2023-05-07T12:22:10;0.00;;;0.00;;
79373;SDS011;68844;53.128;17.958;2023-05-07T12:24:47;0.00;;;0.00;;
79373;SDS011;68844;53.128;17.958;2023-05-07T12:27:16;0.00;;;0.00;;
79373;SDS011;68844;53.128;17.958;2023-05-07T12:29:45;0.00;;;0.00;;
79373;SDS011;68844;53.128;17.958;2023-05-07T12:32:13;0.00;;;0.00;;
79373;SDS011;68844;53.128;17.958;2023-05-07T12:34:44;0.00;;;0.00;;
79373;SDS011;68844;53.128;17.958;2023-05-07T12:37:12;0.00;;;0.00;;
79373;SDS011;68844;53.128;17.958;2023-05-07T12:39:50;0.00;;;0.00;;
79373;SDS011;68844;53.128;17.958;2023-05-07T12:42:38;0.00;;;0.00;;
79373;SDS011;68844;53.128;17.958;2023-05-07T12:45:15;0.00;;;0.00;;
79373;SDS011;68844;53.128;17.958;2023-05-07T12:47:46;0.10;;;0.10;;
79373;SDS011;68844;53.128;17.958;2023-05-07T12:50:14;0.00;;;0.00;;
79373;SDS011;68844;53.128;17.958;2023-05-07T12:52:43;0.10;;;0.00;;
79373;SDS011;68844;53.128;17.958;2023-05-07T12:55:12;0.00;;;0.00;;
79373;SDS011;68844;53.128;17.958;2023-05-07T12:57:42;0.20;;;0.00;;
79373;SDS011;68844;53.128;17.958;2023-05-07T13:00:14;0.00;;;0.00;;
79373;SDS011;68844;53.128;17.958;2023-05-07T13:02:41;0.00;;;0.00;;
79373;SDS011;68844;53.128;17.958;2023-05-07T13:05:12;0.10;;;0.00;;
79373;SDS011;68844;53.128;17.958;2023-05-07T13:07:39;0.00;;;0.00;;
79373;SDS011;68844;53.128;17.958;2023-05-07T13:10:07;0.00;;;0.00;;
79373;SDS011;68844;53.128;17.958;2023-05-07T13:12:35;0.10;;;0.00;;
79373;SDS011;68844;53.128;17.958;2023-05-07T13:15:02;0.00;;;0.00;;
79373;SDS011;68844;53.128;17.958;2023-05-07T13:17:29;0.00;;;0.00;;
79373;SDS011;68844;53.128;17.958;2023-05-07T13:19:57;0.10;;;0.00;;
79373;SDS011;68844;53.128;17.958;2023-05-07T13:22:24;0.00;;;0.00;;
79373;SDS011;68844;53.128;17.958;2023-05-07T13:24:51;0.00;;;0.00;;
79373;SDS011;68844;53.128;17.958;2023-05-07T13:27:18;0.00;;;0.00;;
79373;SDS011;68844;53.128;17.958;2023-05-07T13:29:46;0.10;;;0.00;;
79373;SDS011;68844;53.128;17.958;2023-05-07T13:32:13;0.00;;;0.00;;
79373;SDS011;68844;53.128;17.958;2023-05-07T13:34:40;0.10;;;0.10;;
79373;SDS011;68844;53.128;17.958;2023-05-07T13:37:07;0.00;;;0.00;;
79373;SDS011;68844;53.128;17.958;2023-05-07T13:39:34;0.00;;;0.00;;
79373;SDS011;68844;53.128;17.958;2023-05-07T13:42:01;0.00;;;0.00;;
79373;SDS011;68844;53.128;17.958;2023-05-07T13:44:27;0.00;;;0.00;;
79373;SDS011;68844;53.128;17.958;2023-05-07T13:46:55;0.00;;;0.00;;
79373;SDS011;68844;53.128;17.958;2023-05-07T13:49:22;0.00;;;0.00;;
79373;SDS011;68844;53.128;17.958;2023-05-07T13:51:49;0.00;;;0.00;;
79373;SDS011;68844;53.128;17.958;2023-05-07T13:54:16;0.00;;;0.00;;
79373;SDS011;68844;53.128;17.958;2023-05-07T13:56:42;0.00;;;0.00;;
79373;SDS011;68844;53.128;17.958;2023-05-07T13:59:09;0.00;;;0.00;;
79373;SDS011;68844;53.128;17.958;2023-05-07T14:01:36;0.00;;;0.00;;
79373;SDS011;68844;53.128;17.958;2023-05-07T14:04:03;0.00;;;0.00;;
79373;SDS011;68844;53.128;17.958;2023-05-07T14:06:31;0.00;;;0.00;;
79373;SDS011;68844;53.128;17.958;2023-05-07T14:08:58;0.00;;;0.00;;
79373;SDS011;68844;53.128;17.958;2023-05-07T14:11:28;0.00;;;0.00;;
79373;SDS011;68844;53.128;17.958;2023-05-07T14:13:55;0.00;;;0.00;;
79373;SDS011;68844;53.128;17.958;2023-05-07T14:16:23;0.10;;;0.10;;
79373;SDS011;68844;53.128;17.958;2023-05-07T14:18:50;0.00;;;0.00;;
79373;SDS011;68844;53.128;17.958;2023-05-07T14:21:17;0.00;;;0.00;;
79373;SDS011;68844;53.128;17.958;2023-05-07T14:23:43;0.00;;;0.00;;
79373;SDS011;68844;53.128;17.958;2023-05-07T14:26:10;0.00;;;0.00;;
79373;SDS011;68844;53.128;17.958;2023-05-07T14:28:37;0.00;;;0.00;;
79373;SDS011;68844;53.128;17.958;2023-05-07T14:31:06;0.00;;;0.00;;
79373;SDS011;68844;53.128;17.958;2023-05-07T14:33:33;0.00;;;0.00;;
79373;SDS011;68844;53.128;17.958;2023-05-07T14:36:00;0.00;;;0.00;;
79373;SDS011;68844;53.128;17.958;2023-05-07T14:38:27;0.00;;;0.00;;
79373;SDS011;68844;53.128;17.958;2023-05-07T14:40:53;0.00;;;0.00;;
79373;SDS011;68844;53.128;17.958;2023-05-07T14:43:22;0.10;;;0.00;;
79373;SDS011;68844;53.128;17.958;2023-05-07T14:45:49;0.00;;;0.00;;
79373;SDS011;68844;53.128;17.958;2023-05-07T14:48:16;0.00;;;0.00;;
79373;SDS011;68844;53.128;17.958;2023-05-07T14:50:43;0.10;;;0.10;;
79373;SDS011;68844;53.128;17.958;2023-05-07T14:53:09;0.00;;;0.00;;
79373;SDS011;68844;53.128;17.958;2023-05-07T14:55:36;0.00;;;0.00;;
79373;SDS011;68844;53.128;17.958;2023-05-07T14:58:03;0.00;;;0.00;;
79373;SDS011;68844;53.128;17.958;2023-05-07T15:00:30;0.00;;;0.00;;
79373;SDS011;68844;53.128;17.958;2023-05-07T15:03:06;0.00;;;0.00;;
79373;SDS011;68844;53.128;17.958;2023-05-07T15:05:34;0.00;;;0.00;;
79373;SDS011;68844;53.128;17.958;2023-05-07T15:08:02;0.20;;;0.00;;
79373;SDS011;68844;53.128;17.958;2023-05-07T15:10:29;0.00;;;0.00;;
79373;SDS011;68844;53.128;17.958;2023-05-07T15:12:56;0.00;;;0.00;;
79373;SDS011;68844;53.128;17.958;2023-05-07T15:15:23;0.00;;;0.00;;
79373;SDS011;68844;53.128;17.958;2023-05-07T15:17:51;0.10;;;0.00;;
79373;SDS011;68844;53.128;17.958;2023-05-07T15:20:17;0.00;;;0.00;;
79373;SDS011;68844;53.128;17.958;2023-05-07T15:22:44;0.00;;;0.00;;
79373;SDS011;68844;53.128;17.958;2023-05-07T15:25:12;0.00;;;0.00;;